createdAt,value
2019-06-01T00:00:44.216Z,15.15
2019-06-01T00:03:12.834Z,15.17
2019-06-01T00:05:42.566Z,15.21
2019-06-01T00:08:11.358Z,15.22
2019-06-01T00:10:41.046Z,15.20
2019-06-01T00:13:09.750Z,15.19
2019-06-01T00:15:38.451Z,15.18
2019-06-01T00:18:07.103Z,15.16
2019-06-01T00:20:35.986Z,15.13
2019-06-01T00:23:04.656Z,15.12
2019-06-01T00:25:33.388Z,15.10
2019-06-01T00:28:02.097Z,15.07
2019-06-01T00:30:30.762Z,15.05
2019-06-01T00:32:59.481Z,15.06
2019-06-01T00:35:28.222Z,15.06
2019-06-01T00:37:56.925Z,15.07
2019-06-01T00:40:25.604Z,15.06
2019-06-01T00:42:54.321Z,15.07
2019-06-01T00:45:23.118Z,15.03
2019-06-01T00:47:52.985Z,14.98
2019-06-01T00:50:21.854Z,14.92
2019-06-01T00:52:51.390Z,14.86
2019-06-01T00:55:20.213Z,14.86
2019-06-01T00:57:49.784Z,14.84
2019-06-01T01:00:18.706Z,14.87
2019-06-01T01:02:48.042Z,14.87
2019-06-01T01:05:20.319Z,14.90
2019-06-01T01:07:48.993Z,14.92
2019-06-01T01:10:18.927Z,14.93
2019-06-01T01:13:07.027Z,14.92
2019-06-01T01:15:35.890Z,14.93
2019-06-01T01:18:05.659Z,14.93
2019-06-01T01:20:34.778Z,14.97
2019-06-01T01:23:03.508Z,15.01
2019-06-01T01:25:32.238Z,15.02
2019-06-01T01:28:00.902Z,14.97
2019-06-01T01:30:29.814Z,14.95
2019-06-01T01:32:59.450Z,14.97
2019-06-01T01:35:28.297Z,14.94
2019-06-01T01:37:58.288Z,14.95
2019-06-01T01:40:27.708Z,14.95
2019-06-01T01:42:56.627Z,14.95
2019-06-01T01:45:25.414Z,14.93
2019-06-01T01:47:55.088Z,14.93
2019-06-01T01:50:26.041Z,14.92
2019-06-01T01:52:54.882Z,14.84
2019-06-01T01:55:23.620Z,14.81
2019-06-01T01:57:53.302Z,14.81
2019-06-01T02:00:37.451Z,14.68
2019-06-01T02:03:06.739Z,14.65
2019-06-01T02:05:35.403Z,14.72
2019-06-01T02:08:04.195Z,14.71
2019-06-01T02:10:32.864Z,14.65
2019-06-01T02:13:02.220Z,14.57
2019-06-01T02:15:30.926Z,14.55
2019-06-01T02:18:00.666Z,14.58
2019-06-01T02:20:29.485Z,14.56
2019-06-01T02:22:58.923Z,14.50
2019-06-01T02:25:27.739Z,14.44
2019-06-01T02:27:57.344Z,14.48
2019-06-01T02:30:26.238Z,14.39
2019-06-01T02:32:56.243Z,14.45
2019-06-01T02:35:25.579Z,14.51
2019-06-01T02:37:55.067Z,14.58
2019-06-01T02:40:24.857Z,14.62
2019-06-01T02:42:54.999Z,14.67
2019-06-01T02:45:25.111Z,14.73
2019-06-01T02:47:55.369Z,14.77
2019-06-01T02:50:24.140Z,14.77
2019-06-01T02:52:52.802Z,14.75
2019-06-01T02:55:21.753Z,14.78
2019-06-01T02:57:50.496Z,14.77
2019-06-01T03:00:22.176Z,14.79
2019-06-01T03:02:50.961Z,14.78
2019-06-01T03:05:19.944Z,14.85
2019-06-01T03:07:51.259Z,14.85
2019-06-01T03:10:20.091Z,14.90
2019-06-01T03:12:50.201Z,14.95
2019-06-01T03:15:18.992Z,14.93
2019-06-01T03:17:49.079Z,14.88
2019-06-01T03:20:19.165Z,14.82
2019-06-01T03:22:50.754Z,14.83
2019-06-01T03:25:19.561Z,14.80
2019-06-01T03:27:50.452Z,14.80
2019-06-01T03:30:22.188Z,14.82
2019-06-01T03:32:50.858Z,14.78
2019-06-01T03:35:19.628Z,14.78
2019-06-01T03:37:48.346Z,14.84
2019-06-01T03:40:23.729Z,14.90
2019-06-01T03:42:47.689Z,14.95
2019-06-01T03:45:16.491Z,14.94
2019-06-01T03:47:45.248Z,14.97
2019-06-01T03:50:14.178Z,14.95
2019-06-01T03:52:42.939Z,14.98
2019-06-01T03:55:12.018Z,14.97
2019-06-01T03:57:40.727Z,15.00
2019-06-01T04:00:09.745Z,15.04
2019-06-01T04:02:38.477Z,15.10
2019-06-01T04:05:07.453Z,15.14
2019-06-01T04:07:38.928Z,15.20
2019-06-01T04:10:08.025Z,15.31
2019-06-01T04:12:36.774Z,15.37
2019-06-01T04:15:10.223Z,15.38
2019-06-01T04:17:37.121Z,15.46
2019-06-01T04:20:10.103Z,15.52
2019-06-01T04:22:38.905Z,15.57
2019-06-01T04:25:08.283Z,15.58
2019-06-01T04:27:37.130Z,15.63
2019-06-01T04:30:09.458Z,15.66
2019-06-01T04:32:49.460Z,15.73
2019-06-01T04:35:09.080Z,15.83
2019-06-01T04:37:37.837Z,15.93
2019-06-01T04:40:07.478Z,15.96
2019-06-01T04:42:36.190Z,16.07
2019-06-01T04:45:08.847Z,16.16
2019-06-01T04:47:37.284Z,16.20
2019-06-01T04:50:06.850Z,16.22
2019-06-01T04:52:35.579Z,16.28
2019-06-01T04:55:07.330Z,16.36
2019-06-01T04:57:36.134Z,16.48
2019-06-01T05:00:18.955Z,16.48
2019-06-01T05:02:37.238Z,16.52
2019-06-01T05:05:07.199Z,16.51
2019-06-01T05:07:35.979Z,16.49
2019-06-01T05:10:07.449Z,16.49
2019-06-01T05:12:36.335Z,16.57
2019-06-01T05:15:07.789Z,16.56
2019-06-01T05:17:36.532Z,16.59
2019-06-01T05:20:06.454Z,16.62
2019-06-01T05:22:35.115Z,16.63
2019-06-01T05:25:04.975Z,16.66
2019-06-01T05:27:33.705Z,16.69
2019-06-01T05:30:02.532Z,16.73
2019-06-01T05:32:31.261Z,16.77
2019-06-01T05:34:59.926Z,16.79
2019-06-01T05:37:28.627Z,16.84
2019-06-01T05:39:57.278Z,16.85
2019-06-01T05:42:25.950Z,16.86
2019-06-01T05:44:54.650Z,16.85
2019-06-01T05:47:23.308Z,16.83
2019-06-01T05:49:52.003Z,16.85
2019-06-01T05:52:20.672Z,16.88
2019-06-01T05:54:49.477Z,16.92
2019-06-01T05:57:19.337Z,16.91
2019-06-01T05:59:48.240Z,16.95
2019-06-01T06:02:17.461Z,16.98
2019-06-01T06:04:46.276Z,17.07
2019-06-01T06:07:14.930Z,17.12
2019-06-01T06:09:43.619Z,17.12
2019-06-01T06:12:13.188Z,17.19
2019-06-01T06:14:42.104Z,17.21
2019-06-01T06:17:13.999Z,17.29
2019-06-01T06:19:41.261Z,17.39
2019-06-01T06:22:09.920Z,17.44
2019-06-01T06:24:38.707Z,17.49
2019-06-01T06:27:07.402Z,17.51
2019-06-01T06:29:36.067Z,17.64
2019-06-01T06:32:04.784Z,17.77
2019-06-01T06:34:33.520Z,17.82
2019-06-01T06:37:02.209Z,17.86
2019-06-01T06:39:30.885Z,17.89
2019-06-01T06:41:59.735Z,17.93
2019-06-01T06:44:28.466Z,18.05
2019-06-01T06:46:57.132Z,18.03
2019-06-01T06:49:25.943Z,18.21
2019-06-01T06:51:54.729Z,18.38
2019-06-01T06:54:23.932Z,18.79
2019-06-01T06:56:52.654Z,18.75
2019-06-01T06:59:22.388Z,18.86
2019-06-01T07:01:51.120Z,19.06
2019-06-01T07:04:21.160Z,19.18
2019-06-01T07:06:50.066Z,19.37
2019-06-01T07:09:19.915Z,19.49
2019-06-01T07:11:48.676Z,19.78
2019-06-01T07:14:17.789Z,20.01
2019-06-01T07:16:46.470Z,20.39
2019-06-01T07:19:15.185Z,21.03
2019-06-01T07:21:43.949Z,21.58
2019-06-01T07:24:12.756Z,21.98
2019-06-01T07:26:41.407Z,22.26
2019-06-01T07:29:10.205Z,22.59
2019-06-01T07:31:38.908Z,23.10
2019-06-01T07:34:07.590Z,23.44
2019-06-01T07:36:36.372Z,24.27
2019-06-01T07:39:06.760Z,24.85
2019-06-01T07:41:35.452Z,25.30
2019-06-01T07:44:05.118Z,25.31
2019-06-01T07:46:33.839Z,24.54
2019-06-01T07:49:02.504Z,24.10
2019-06-01T07:51:31.698Z,23.44
2019-06-01T07:54:00.546Z,23.31
2019-06-01T07:56:29.218Z,23.41
2019-06-01T07:58:57.889Z,23.23
2019-06-01T08:01:27.797Z,23.37
2019-06-01T08:03:57.067Z,24.03
2019-06-01T08:06:26.697Z,25.03
2019-06-01T08:08:56.214Z,25.89
2019-06-01T08:11:29.157Z,26.68
2019-06-01T08:13:55.266Z,27.42
2019-06-01T08:16:24.059Z,28.13
2019-06-01T08:18:53.431Z,27.98
2019-06-01T08:21:22.264Z,28.06
2019-06-01T08:23:50.975Z,28.56
2019-06-01T08:26:20.138Z,28.95
2019-06-01T08:28:48.853Z,29.51
2019-06-01T08:31:17.634Z,29.50
2019-06-01T08:33:46.318Z,29.84
2019-06-01T08:36:14.975Z,29.70
2019-06-01T08:38:43.672Z,28.93
2019-06-01T08:41:12.331Z,28.60
2019-06-01T08:43:41.096Z,28.12
2019-06-01T08:46:09.769Z,28.78
2019-06-01T08:48:38.434Z,28.60
2019-06-01T08:51:07.129Z,28.52
2019-06-01T08:53:35.858Z,29.08
2019-06-01T08:56:04.553Z,29.20
2019-06-01T08:58:34.546Z,29.26
2019-06-01T09:01:03.330Z,29.12
2019-06-01T09:03:32.039Z,29.10
2019-06-01T09:06:00.692Z,28.92
2019-06-01T09:08:29.363Z,28.07
2019-06-01T09:10:58.063Z,28.74
2019-06-01T09:13:27.167Z,28.59
2019-06-01T09:15:56.001Z,28.10
2019-06-01T09:18:25.727Z,28.01
2019-06-01T09:20:54.422Z,28.02
2019-06-01T09:23:23.081Z,27.93
2019-06-01T09:25:51.835Z,27.61
2019-06-01T09:28:20.494Z,27.97
2019-06-01T09:30:49.188Z,28.78
2019-06-01T09:33:17.859Z,29.01
2019-06-01T09:35:55.633Z,29.93
2019-06-01T09:38:17.150Z,30.72
2019-06-01T09:40:45.969Z,31.05
2019-06-01T09:43:14.607Z,31.49
2019-06-01T09:45:43.412Z,32.60
2019-06-01T09:48:12.147Z,32.44
2019-06-01T09:50:41.243Z,32.79
2019-06-01T09:53:09.901Z,32.78
2019-06-01T09:55:38.598Z,33.11
2019-06-01T09:58:07.371Z,33.32
2019-06-01T10:00:41.546Z,33.35
2019-06-01T10:03:06.818Z,32.00
2019-06-01T10:05:36.489Z,31.94
2019-06-01T10:08:05.163Z,32.43
2019-06-01T10:10:34.014Z,31.83
2019-06-01T10:13:02.761Z,31.33
2019-06-01T10:15:32.493Z,31.61
2019-06-01T10:18:01.198Z,30.83
2019-06-01T10:20:30.699Z,30.13
2019-06-01T10:22:59.416Z,30.04
2019-06-01T10:25:28.144Z,29.59
2019-06-01T10:27:56.822Z,29.65
2019-06-01T10:30:25.592Z,30.40
2019-06-01T10:32:54.241Z,29.90
2019-06-01T10:35:23.173Z,29.99
2019-06-01T10:37:51.992Z,30.80
2019-06-01T10:40:20.761Z,31.38
2019-06-01T10:42:49.742Z,31.63
2019-06-01T10:45:19.024Z,32.04
2019-06-01T10:47:47.783Z,32.55
2019-06-01T10:50:17.679Z,33.13
2019-06-01T10:52:46.529Z,33.20
2019-06-01T10:55:15.512Z,33.29
2019-06-01T10:57:44.208Z,33.20
2019-06-01T11:00:13.967Z,33.42
2019-06-01T11:02:43.291Z,33.81
2019-06-01T11:05:13.200Z,33.36
2019-06-01T11:07:43.127Z,33.15
2019-06-01T11:10:12.428Z,33.43
2019-06-01T11:12:41.194Z,33.62
2019-06-01T11:15:10.385Z,33.42
2019-06-01T11:17:39.340Z,33.89
2019-06-01T11:20:08.464Z,34.15
2019-06-01T11:22:37.587Z,34.90
2019-06-01T11:25:07.477Z,34.57
2019-06-01T11:27:37.628Z,34.94
2019-06-01T11:30:08.242Z,34.23
2019-06-01T11:32:39.490Z,34.81
2019-06-01T11:35:08.542Z,34.66
2019-06-01T11:37:38.403Z,34.84
2019-06-01T11:40:08.949Z,35.17
2019-06-01T11:42:39.034Z,35.89
2019-06-01T11:45:08.938Z,35.99
2019-06-01T11:47:38.787Z,35.49
2019-06-01T11:50:08.109Z,35.52
2019-06-01T11:52:37.091Z,35.75
2019-06-01T11:55:10.257Z,35.47
2019-06-01T11:57:39.514Z,35.70
2019-06-01T12:00:12.983Z,35.75
2019-06-01T12:02:41.915Z,36.12
2019-06-01T12:05:11.639Z,35.69
2019-06-01T12:07:41.839Z,36.35
2019-06-01T12:10:11.159Z,36.37
2019-06-01T12:12:40.162Z,36.62
2019-06-01T12:15:09.531Z,35.49
2019-06-01T12:17:38.726Z,35.90
2019-06-01T12:20:08.393Z,35.68
2019-06-01T12:22:37.120Z,35.61
2019-06-01T12:25:06.695Z,35.98
2019-06-01T12:27:35.469Z,35.64
2019-06-01T12:30:06.847Z,35.84
2019-06-01T12:32:35.628Z,35.27
2019-06-01T12:35:08.017Z,35.39
2019-06-01T12:37:57.019Z,35.00
2019-06-01T12:40:07.947Z,35.24
2019-06-01T12:42:36.712Z,35.18
2019-06-01T12:45:10.092Z,35.09
2019-06-01T12:47:39.901Z,35.30
2019-06-01T12:50:08.837Z,35.65
2019-06-01T12:52:37.613Z,35.42
2019-06-01T12:55:07.183Z,35.42
2019-06-01T12:57:35.927Z,35.39
2019-06-01T13:00:06.661Z,35.42
2019-06-01T13:02:35.373Z,35.21
2019-06-01T13:05:07.315Z,35.61
2019-06-01T13:07:50.844Z,35.01
2019-06-01T13:10:09.447Z,34.81
2019-06-01T13:12:38.165Z,34.86
2019-06-01T13:15:08.701Z,34.74
2019-06-01T13:17:37.464Z,34.30
2019-06-01T13:20:08.011Z,33.99
2019-06-01T13:22:36.801Z,33.71
2019-06-01T13:25:07.235Z,33.66
2019-06-01T13:27:35.941Z,33.85
2019-06-01T13:30:09.228Z,33.81
2019-06-01T13:32:37.994Z,33.66
2019-06-01T13:35:07.961Z,34.11
2019-06-01T13:37:36.710Z,34.32
2019-06-01T13:40:08.621Z,34.48
2019-06-01T13:42:37.385Z,34.07
2019-06-01T13:45:09.404Z,34.24
2019-06-01T13:47:38.122Z,34.45
2019-06-01T13:50:07.425Z,34.17
2019-06-01T13:52:36.158Z,34.11
2019-06-01T13:55:07.585Z,33.85
2019-06-01T13:57:39.448Z,33.58
2019-06-01T14:00:09.126Z,33.37
2019-06-01T14:02:37.864Z,33.28
2019-06-01T14:05:08.327Z,33.37
2019-06-01T14:07:37.105Z,33.20
2019-06-01T14:10:08.666Z,33.38
2019-06-01T14:12:37.393Z,33.51
2019-06-01T14:15:07.614Z,33.42
2019-06-01T14:17:36.328Z,33.10
2019-06-01T14:20:09.340Z,33.20
2019-06-01T14:22:37.998Z,32.93
2019-06-01T14:25:13.381Z,32.94
2019-06-01T14:27:37.915Z,32.34
2019-06-01T14:30:08.168Z,32.35
2019-06-01T14:32:36.839Z,32.32
2019-06-01T14:35:08.537Z,32.14
2019-06-01T14:37:37.222Z,32.15
2019-06-01T14:40:07.344Z,32.19
2019-06-01T14:42:35.991Z,31.97
2019-06-01T14:45:09.400Z,31.90
2019-06-01T14:47:38.067Z,31.69
2019-06-01T14:50:08.638Z,31.63
2019-06-01T14:52:37.304Z,31.37
2019-06-01T14:55:07.360Z,31.32
2019-06-01T14:57:36.105Z,31.23
2019-06-01T15:00:09.796Z,31.17
2019-06-01T15:02:38.539Z,30.92
2019-06-01T15:05:11.119Z,30.49
2019-06-01T15:07:39.774Z,30.21
2019-06-01T15:10:11.652Z,30.13
2019-06-01T15:12:40.425Z,30.02
2019-06-01T15:15:09.915Z,29.87
2019-06-01T15:17:38.603Z,29.85
2019-06-01T15:20:08.856Z,29.82
2019-06-01T15:22:37.583Z,29.62
2019-06-01T15:25:08.421Z,29.56
2019-06-01T15:27:37.227Z,29.38
2019-06-01T15:30:08.175Z,29.22
2019-06-01T15:32:36.973Z,29.00
2019-06-01T15:35:08.877Z,28.79
2019-06-01T15:37:37.568Z,28.65
2019-06-01T15:40:10.361Z,28.31
2019-06-01T15:42:39.116Z,28.22
2019-06-01T15:45:08.831Z,28.15
2019-06-01T15:47:37.513Z,28.09
2019-06-01T15:50:10.751Z,28.04
2019-06-01T15:52:39.448Z,27.90
2019-06-01T15:55:08.905Z,27.80
2019-06-01T15:57:37.594Z,27.70
2019-06-01T16:00:10.086Z,27.49
2019-06-01T16:02:38.790Z,27.37
2019-06-01T16:05:09.454Z,27.27
2019-06-01T16:07:38.205Z,27.17
2019-06-01T16:10:09.475Z,26.95
2019-06-01T16:12:38.229Z,26.85
2019-06-01T16:15:11.164Z,26.77
2019-06-01T16:17:39.891Z,26.58
2019-06-01T16:20:09.505Z,26.44
2019-06-01T16:22:38.165Z,26.29
2019-06-01T16:25:08.172Z,26.18
2019-06-01T16:27:36.859Z,26.12
2019-06-01T16:30:07.676Z,25.99
2019-06-01T16:32:39.388Z,25.94
2019-06-01T16:35:08.766Z,25.95
2019-06-01T16:37:37.511Z,25.81
2019-06-01T16:40:10.288Z,25.67
2019-06-01T16:42:38.506Z,25.54
2019-06-01T16:45:08.022Z,25.46
2019-06-01T16:47:36.754Z,25.29
2019-06-01T16:50:09.227Z,25.22
2019-06-01T16:52:37.958Z,25.10
2019-06-01T16:55:07.966Z,25.06
2019-06-01T16:57:36.695Z,25.03
2019-06-01T17:00:07.990Z,24.99
2019-06-01T17:02:36.718Z,24.91
2019-06-01T17:05:07.216Z,24.77
2019-06-01T17:07:36.034Z,24.74
2019-06-01T17:10:21.770Z,24.70
2019-06-01T17:12:42.992Z,24.64
2019-06-01T17:15:10.684Z,24.55
2019-06-01T17:17:39.455Z,24.44
2019-06-01T17:20:14.027Z,24.46
2019-06-01T17:22:42.772Z,24.44
2019-06-01T17:25:11.748Z,24.39
2019-06-01T17:27:40.409Z,24.32
2019-06-01T17:30:11.773Z,24.37
2019-06-01T17:32:39.732Z,24.18
2019-06-01T17:35:09.117Z,24.09
2019-06-01T17:37:37.967Z,23.96
2019-06-01T17:40:08.402Z,23.87
2019-06-01T17:42:37.239Z,23.81
2019-06-01T17:45:08.290Z,23.75
2019-06-01T17:47:40.915Z,23.66
2019-06-01T17:50:09.733Z,23.54
2019-06-01T17:52:38.571Z,23.50
2019-06-01T17:55:07.571Z,23.47
2019-06-01T17:57:36.228Z,23.42
2019-06-01T18:00:07.907Z,23.32
2019-06-01T18:02:36.645Z,23.23
2019-06-01T18:05:08.120Z,23.10
2019-06-01T18:07:37.007Z,22.95
2019-06-01T18:10:08.273Z,22.89
2019-06-01T18:12:37.014Z,22.74
2019-06-01T18:15:08.576Z,22.63
2019-06-01T18:17:37.362Z,22.58
2019-06-01T18:20:09.012Z,22.59
2019-06-01T18:22:37.781Z,22.49
2019-06-01T18:25:08.571Z,22.45
2019-06-01T18:27:37.669Z,22.38
2019-06-01T18:30:09.065Z,22.34
2019-06-01T18:32:37.858Z,22.29
2019-06-01T18:35:09.887Z,22.24
2019-06-01T18:37:38.548Z,22.11
2019-06-01T18:40:11.915Z,22.05
2019-06-01T18:42:40.776Z,21.99
2019-06-01T18:45:11.730Z,21.82
2019-06-01T18:47:40.554Z,21.72
2019-06-01T18:50:11.076Z,21.64
2019-06-01T18:52:40.423Z,21.58
2019-06-01T18:55:10.616Z,21.53
2019-06-01T18:57:41.942Z,21.43
2019-06-01T19:00:15.189Z,21.35
2019-06-01T19:02:43.495Z,21.33
2019-06-01T19:05:13.461Z,21.21
2019-06-01T19:07:42.156Z,21.12
2019-06-01T19:10:12.535Z,21.05
2019-06-01T19:12:41.891Z,20.93
2019-06-01T19:15:25.294Z,20.91
2019-06-01T19:17:41.626Z,20.84
2019-06-01T19:20:11.141Z,20.81
2019-06-01T19:22:39.873Z,20.76
2019-06-01T19:25:09.073Z,20.75
2019-06-01T19:27:37.755Z,20.73
2019-06-01T19:30:08.862Z,20.63
2019-06-01T19:32:37.859Z,20.58
2019-06-01T19:35:07.587Z,20.49
2019-06-01T19:37:38.783Z,20.45
2019-06-01T19:40:09.299Z,20.36
2019-06-01T19:42:38.109Z,20.29
2019-06-01T19:45:23.530Z,20.24
2019-06-01T19:47:38.860Z,20.16
2019-06-01T19:50:08.761Z,20.08
2019-06-01T19:52:37.579Z,20.02
2019-06-01T19:55:08.769Z,19.96
2019-06-01T19:57:37.824Z,19.91
2019-06-01T20:00:10.123Z,19.81
2019-06-01T20:02:39.033Z,19.74
2019-06-01T20:05:08.183Z,19.66
2019-06-01T20:07:36.872Z,19.59
2019-06-01T20:10:07.320Z,19.50
2019-06-01T20:12:39.519Z,19.43
2019-06-01T20:15:11.309Z,19.33
2019-06-01T20:17:40.162Z,19.07
2019-06-01T20:20:10.636Z,18.90
2019-06-01T20:22:39.435Z,18.75
2019-06-01T20:25:08.601Z,18.59
2019-06-01T20:27:43.054Z,18.39
2019-06-01T20:30:13.770Z,18.25
2019-06-01T20:32:42.553Z,18.28
2019-06-01T20:35:13.903Z,18.15
2019-06-01T20:37:42.775Z,18.05
2019-06-01T20:40:12.134Z,18.07
2019-06-01T20:42:40.914Z,18.16
2019-06-01T20:45:10.094Z,18.21
2019-06-01T20:47:38.776Z,18.19
2019-06-01T20:50:08.988Z,18.16
2019-06-01T20:52:37.729Z,18.10
2019-06-01T20:55:07.754Z,18.02
2019-06-01T20:57:36.482Z,17.95
2019-06-01T21:00:08.232Z,17.90
2019-06-01T21:02:37.261Z,17.85
2019-06-01T21:05:07.668Z,17.82
2019-06-01T21:07:36.400Z,17.76
2019-06-01T21:10:09.582Z,17.65
2019-06-01T21:12:46.195Z,17.62
2019-06-01T21:15:09.380Z,17.62
2019-06-01T21:17:38.129Z,17.56
2019-06-01T21:20:08.240Z,17.51
2019-06-01T21:22:37.163Z,17.44
2019-06-01T21:25:09.236Z,17.37
2019-06-01T21:27:37.956Z,17.34
2019-06-01T21:30:10.918Z,17.31
2019-06-01T21:32:39.695Z,17.27
2019-06-01T21:35:08.598Z,17.23
2019-06-01T21:37:37.247Z,17.21
2019-06-01T21:40:08.191Z,17.19
2019-06-01T21:42:38.584Z,17.16
2019-06-01T21:45:07.767Z,17.12
2019-06-01T21:47:36.488Z,17.08
2019-06-01T21:50:07.062Z,17.05
2019-06-01T21:52:35.833Z,17.01
2019-06-01T21:55:06.780Z,16.98
2019-06-01T21:57:35.445Z,16.79
2019-06-01T22:00:16.401Z,16.68
2019-06-01T22:02:45.093Z,16.59
2019-06-01T22:05:13.893Z,16.46
2019-06-01T22:07:42.574Z,16.38
2019-06-01T22:10:11.577Z,16.37
2019-06-01T22:12:40.375Z,16.42
2019-06-01T22:15:09.671Z,16.44
2019-06-01T22:17:38.420Z,16.42
2019-06-01T22:20:07.647Z,16.36
2019-06-01T22:22:36.347Z,16.31
2019-06-01T22:25:06.705Z,16.25
2019-06-01T22:27:35.463Z,16.20
2019-06-01T22:30:05.543Z,16.13
2019-06-01T22:32:34.273Z,16.01
2019-06-01T22:35:03.549Z,16.03
2019-06-01T22:37:32.551Z,16.04
2019-06-01T22:40:01.309Z,16.07
2019-06-01T22:42:29.999Z,16.07
2019-06-01T22:44:58.685Z,16.06
2019-06-01T22:47:28.907Z,16.07
2019-06-01T22:49:57.755Z,15.93
2019-06-01T22:52:27.053Z,15.77
2019-06-01T22:54:55.787Z,15.80
2019-06-01T22:57:24.571Z,15.83
2019-06-01T22:59:53.242Z,15.84
2019-06-01T23:02:21.917Z,15.83
2019-06-01T23:04:50.637Z,15.67
2019-06-01T23:07:19.388Z,15.63
2019-06-01T23:09:48.060Z,15.51
2019-06-01T23:12:16.822Z,15.41
2019-06-01T23:14:45.499Z,15.45
2019-06-01T23:17:14.154Z,15.43
2019-06-01T23:19:42.863Z,15.49
2019-06-01T23:22:11.572Z,15.58
2019-06-01T23:24:40.241Z,15.61
2019-06-01T23:27:08.960Z,15.59
2019-06-01T23:29:37.630Z,15.63
2019-06-01T23:32:06.356Z,15.51
2019-06-01T23:34:35.085Z,15.36
2019-06-01T23:37:03.759Z,15.43
2019-06-01T23:39:32.977Z,15.42
2019-06-01T23:42:01.721Z,15.41
2019-06-01T23:44:32.471Z,15.39
2019-06-01T23:47:00.944Z,15.36
2019-06-01T23:49:29.656Z,15.32
2019-06-01T23:51:58.384Z,15.27
2019-06-01T23:54:27.650Z,15.23
2019-06-01T23:56:56.413Z,15.18
2019-06-01T23:59:27.920Z,15.13
